Sunday, August 19, 2018, 1:52 PM EDT
Back to Local

KJST, Johnstown-cambria Co Airport

Location: Johnstown, PA, United States Lat: 40.317
Local Time: 1:52 PM EDT (17:52 GMT) Lon: -78.833
Time Zone: US/Eastern Elev: 2283 ft

Show me the last for .
Show Decoded

2018-08-19 12:54 METAR KJST 191654Z AUTO 19005KT 10SM BKN025 OVC029 21/16 A3004 RMK AO2 SLP162
                 T02110156 =
2018-08-19 12:37 METAR KJST 191637Z AUTO VRB04KT 10SM BKN023 21/16 A3004 RMK AO2 T02060161 =
2018-08-19 12:28 METAR KJST 191628Z AUTO 00000KT 10SM SCT024 21/16 A3005 RMK AO2 T02110156 =
2018-08-19 12:01 METAR KJST 191601Z AUTO 05006KT 10SM FEW019 BKN024 21/16 A3004 RMK AO2 T02060156
                 =
2018-08-19 11:54 METAR KJST 191554Z AUTO 06007KT 10SM FEW019 SCT024 21/16 A3004 RMK AO2 SLP162
                 T02060161 =
2018-08-19 10:54 METAR KJST 191454Z AUTO 04006KT 10SM CLR 19/15 A3004 RMK AO2 SLP163 T01940150
                 53007 =
2018-08-19 09:54 METAR KJST 191354Z AUTO VRB03KT 10SM FEW007 18/15 A3003 RMK AO2 SLP159 T01780150
                 =
2018-08-19 09:20 METAR KJST 191320Z AUTO 07005KT 10SM SCT004 16/14 A3002 RMK AO2 T01610144 =
2018-08-19 09:02 METAR KJST 191302Z AUTO 06005KT 10SM BKN003 15/14 A3003 RMK AO2 T01500144 =
2018-08-19 08:54 METAR KJST 191254Z AUTO 06005KT 10SM BKN002 15/14 A3003 RMK AO2 SLP161 T01500144
                 =
2018-08-19 08:38 METAR KJST 191238Z AUTO 06006KT 8SM BKN002 15/14 A3003 RMK AO2 T01500144 =
2018-08-19 08:30 METAR KJST 191230Z AUTO 06004KT 2SM BR OVC002 14/14 A3003 RMK AO2 T01440139 =
2018-08-19 08:24 METAR KJST 191224Z AUTO 06004KT 3/4SM BR VV002 14/14 A3003 RMK AO2 T01440139 =
2018-08-19 07:54 METAR KJST 191154Z AUTO 08004KT 1/4SM FG VV002 14/14 A3002 RMK AO2 SLP159
                 T01390139 10167 20139 53015 =
2018-08-19 06:54 METAR KJST 191054Z AUTO 05005KT 1/4SM FG VV002 14/13 A3001 RMK AO2 SLP153
                 T01390133 =
2018-08-19 06:08 METAR KJST 191008Z AUTO 06004KT 1/4SM FG VV002 14/13 A2999 RMK AO2 T01390133 =
2018-08-19 05:54 METAR KJST 190954Z AUTO 05004KT 1/2SM FG VV002 14/13 A2999 RMK AO2 SLP145
                 T01440133 =
2018-08-19 05:47 METAR KJST 190947Z AUTO 05006KT 1/4SM FG VV002 14/14 A2999 RMK AO2 T01440139 =
2018-08-19 05:32 METAR KJST 190932Z AUTO 06004KT 1/2SM FG VV002 14/14 A2998 RMK AO2 T01440139 =
2018-08-19 05:19 METAR KJST 190919Z AUTO 06005KT 1 3/4SM BR OVC002 14/14 A2998 RMK AO2 T01440139
                 =
2018-08-19 04:54 METAR KJST 190854Z AUTO 07005KT 3SM BR OVC002 15/14 A2998 RMK AO2 SLP139
                 T01500144 55000 =
2018-08-19 04:45 METAR KJST 190845Z AUTO 07005KT 2SM BR OVC002 15/14 A2998 RMK AO2 T01500144 =
2018-08-19 04:17 METAR KJST 190817Z AUTO 07004KT 9SM BKN002 15/14 A2997 RMK AO2 T01500139 =
2018-08-19 04:08 METAR KJST 190808Z AUTO 07004KT 10SM SCT002 15/14 A2997 RMK AO2 T01500139 =
2018-08-19 03:54 METAR KJST 190754Z AUTO 07003KT 10SM CLR 15/14 A2998 RMK AO2 SLP139 T01500139 =
2018-08-19 02:54 METAR KJST 190654Z AUTO 07005KT 10SM CLR 16/14 A2997 RMK AO2 SLP138 T01560144 =
2018-08-19 02:08 METAR KJST 190608Z AUTO 06005KT 10SM SCT014 16/15 A2998 RMK AO2 T01610150 =
2018-08-19 01:54 METAR KJST 190554Z AUTO 05006KT 10SM BKN014 17/16 A2998 RMK AO2 SLP139 T01670156
                 10206 20167 58001 =
2018-08-19 01:20 METAR KJST 190520Z AUTO 05006KT 10SM BKN013 17/16 A2999 RMK AO2 T01670156 =
2018-08-19 00:54 METAR KJST 190454Z AUTO 06005KT 10SM CLR 17/16 A2998 RMK AO2 SLP140 T01670156
                 402440167 =
2018-08-18 23:54 METAR KJST 190354Z AUTO 04005KT 10SM OVC038 18/16 A2998 RMK AO2 SLP140 T01780161
                 =
2018-08-18 22:54 METAR KJST 190254Z AUTO 02004KT 10SM CLR 18/17 A2998 RMK AO2 SLP139 T01830172
                 50011 =
2018-08-18 21:54 METAR KJST 190154Z AUTO 00000KT 10SM BKN039 19/18 A2998 RMK AO2 SLP140 T01940178
                 =
2018-08-18 20:54 METAR KJST 190054Z AUTO 08003KT 10SM FEW036 19/18 A2997 RMK AO2 SLP135 T01940178
                 =
2018-08-18 19:54 METAR KJST 182354Z AUTO 05005KT 10SM SCT043 21/17 A2995 RMK AO2 SLP127 T02060172
                 10244 20206 51007 =
2018-08-18 18:54 METAR KJST 182254Z AUTO 04005KT 10SM CLR 22/18 A2994 RMK AO2 SLP124 T02170183 =
2018-08-18 17:54 METAR KJST 182154Z AUTO 01007KT 10SM FEW024 22/18 A2994 RMK AO2 SLP123 T02220178
                 =
2018-08-18 16:54 METAR KJST 182054Z AUTO 35010KT 10SM FEW030 23/18 A2993 RMK AO2 WSHFT 2015
                 SLP119 T02330178 58005 =
2018-08-18 16:35 METAR KJST 182035Z AUTO 35011KT 10SM FEW024 SCT030 BKN035 23/18 A2993 RMK AO2
                 WSHFT 2015 T02280178 =
2018-08-18 15:54 METAR KJST 181954Z AUTO 29011KT 10SM SCT024 SCT030 SCT050 23/19 A2993 RMK AO2
                 SLP120 T02330189 =
2018-08-18 14:54 METAR KJST 181854Z AUTO 29010KT 10SM SCT023 BKN036 BKN050 23/18 A2994 RMK AO2
                 SLP124 T02330183 =
2018-08-18 14:38 METAR KJST 181838Z AUTO 29009KT 10SM BKN023 BKN060 23/19 A2995 RMK AO2 T02330189
                 =
2018-08-18 14:28 METAR KJST 181828Z AUTO 31009KT 10SM SCT025 BKN055 23/19 A2995 RMK AO2 T02330189
                 =
2018-08-18 14:21 METAR KJST 181821Z AUTO 31009KT 10SM BKN023 BKN035 OVC055 23/19 A2995 RMK AO2
                 T02330189 =
2018-08-18 14:09 METAR KJST 181809Z AUTO 31010KT 10SM SCT024 SCT035 OVC055 24/19 A2995 RMK AO2
                 T02390189 =
2018-08-18 13:54 METAR KJST 181754Z AUTO 30008KT 10SM SCT022 BKN029 OVC049 23/18 A2996 RMK AO2
                 SLP129 60000 T02330183 10239 20200 56006 =

Support USWX by starting your Amazon purchase here.